EGAC/BHD METAR and TAF weather

Enter ICAO airport designator
Station Type Date Time Source
EGAC METAR 2023/01/30 10:50 UTC NOAA

EGAC 301050Z AUTO 26006KT 230V290 9999 NCD 07/03 Q1025


Station Type Date Time Source
EGAC Decoded METAR 2023/01/30 10:50 UTC NOAA

Belfast / Harbour, United Kingdom (EGAC) 54-36N 005-53W 0M
Jan 30, 2023 - 05:50 AM EST / 2023.01.30 1050 UTC
Wind: from the W (260 degrees) at 7 MPH (6 KT) (direction variable):0
Visibility: greater than 7 mile(s):0
Temperature: 44 F (7 C)
Dew Point: 37 F (3 C)
Relative Humidity: 75%
Pressure (altimeter): 30.27 in. Hg (1025 hPa)
ob: EGAC 301050Z AUTO 26006KT 230V290 9999 NCD 07/03 Q1025
cycle: 11

Station Type Date Time Source
EGAC TAF 2021/12/01 18:06 UTC NOAA

TAF TAF EGAC 010102Z 3018/0103 CNL

Example: see airport list